createdAt,value
2019-05-19T00:00:05.250Z,20.43
2019-05-19T00:01:57.326Z,20.40
2019-05-19T00:02:57.313Z,20.43
2019-05-19T00:04:49.363Z,20.40
2019-05-19T00:05:49.307Z,20.37
2019-05-19T00:07:41.497Z,20.41
2019-05-19T00:08:41.445Z,20.34
2019-05-19T00:10:33.512Z,20.34
2019-05-19T00:11:33.479Z,20.29
2019-05-19T00:13:25.564Z,20.31
2019-05-19T00:14:25.511Z,20.37
2019-05-19T00:16:17.760Z,20.31
2019-05-19T00:17:17.651Z,20.31
2019-05-19T00:19:09.728Z,20.32
2019-05-19T00:20:09.685Z,20.36
2019-05-19T00:22:01.768Z,20.28
2019-05-19T00:23:01.723Z,20.31
2019-05-19T00:24:53.814Z,20.37
2019-05-19T00:25:53.753Z,20.37
2019-05-19T00:27:45.854Z,20.37
2019-05-19T00:28:45.795Z,20.28
2019-05-19T00:30:37.854Z,20.29
2019-05-19T00:31:37.827Z,20.40
2019-05-19T00:33:29.911Z,20.26
2019-05-19T00:34:29.873Z,20.32
2019-05-19T00:36:22.026Z,20.25
2019-05-19T00:37:21.991Z,20.37
2019-05-19T00:39:14.080Z,20.34
2019-05-19T00:40:14.025Z,20.25
2019-05-19T00:42:06.106Z,20.28
2019-05-19T00:43:06.054Z,20.26
2019-05-19T00:44:58.232Z,20.25
2019-05-19T00:45:58.200Z,20.19
2019-05-19T00:47:50.286Z,20.19
2019-05-19T00:48:50.252Z,20.40
2019-05-19T00:50:42.313Z,20.21
2019-05-19T00:51:42.265Z,20.32
2019-05-19T00:53:34.367Z,20.41
2019-05-19T00:54:34.305Z,20.29
2019-05-19T00:56:26.484Z,20.37
2019-05-19T00:57:26.439Z,20.26
2019-05-19T00:59:18.515Z,20.34
2019-05-19T01:00:18.474Z,20.22
2019-05-19T01:02:10.670Z,20.31
2019-05-19T01:03:10.839Z,20.19
2019-05-19T01:05:02.679Z,20.25
2019-05-19T01:06:02.891Z,20.26
2019-05-19T01:07:54.741Z,20.21
2019-05-19T01:08:54.705Z,20.25
2019-05-19T01:10:46.869Z,20.25
2019-05-19T01:11:47.049Z,20.25
2019-05-19T01:13:38.882Z,20.26
2019-05-19T01:14:38.848Z,20.24
2019-05-19T01:16:30.936Z,20.18
2019-05-19T01:17:30.882Z,20.26
2019-05-19T01:19:23.064Z,20.22
2019-05-19T01:20:23.015Z,20.21
2019-05-19T01:22:15.091Z,20.22
2019-05-19T01:23:15.053Z,20.19
2019-05-19T01:25:07.030Z,20.25
2019-05-19T01:26:06.988Z,20.22
2019-05-19T01:27:59.072Z,20.24
2019-05-19T01:28:59.019Z,20.22
2019-05-19T01:30:51.108Z,20.21
2019-05-19T01:31:51.053Z,20.21
2019-05-19T01:33:43.123Z,20.24
2019-05-19T01:34:43.090Z,20.13
2019-05-19T01:36:35.178Z,20.19
2019-05-19T01:37:35.121Z,20.22
2019-05-19T01:39:27.188Z,20.26
2019-05-19T01:40:27.386Z,20.10
2019-05-19T01:42:19.247Z,20.13
2019-05-19T01:43:19.421Z,20.21
2019-05-19T01:45:11.266Z,20.22
2019-05-19T01:46:11.251Z,20.22
2019-05-19T01:48:03.525Z,20.13
2019-05-19T01:49:03.593Z,20.07
2019-05-19T01:50:55.449Z,20.14
2019-05-19T01:51:55.627Z,20.13
2019-05-19T01:53:47.480Z,20.11
2019-05-19T01:54:47.431Z,20.10
2019-05-19T01:56:39.556Z,20.07
2019-05-19T01:57:39.464Z,20.11
2019-05-19T01:59:31.534Z,20.10
2019-05-19T02:00:31.500Z,20.10
2019-05-19T02:02:23.589Z,20.14
2019-05-19T02:03:23.537Z,20.13
2019-05-19T02:05:15.640Z,20.14
2019-05-19T02:06:15.576Z,20.13
2019-05-19T02:08:07.739Z,20.14
2019-05-19T02:09:07.710Z,20.10
2019-05-19T02:10:59.792Z,20.09
2019-05-19T02:11:59.740Z,20.14
2019-05-19T02:13:51.808Z,20.14
2019-05-19T02:14:52.004Z,20.13
2019-05-19T02:16:43.881Z,20.10
2019-05-19T02:17:44.052Z,20.04
2019-05-19T02:19:35.912Z,20.03
2019-05-19T02:20:35.878Z,20.06
2019-05-19T02:22:27.929Z,20.09
2019-05-19T02:23:28.110Z,20.07
2019-05-19T02:25:19.956Z,20.11
2019-05-19T02:26:20.143Z,20.10
2019-05-19T02:28:11.987Z,20.07
2019-05-19T02:29:11.951Z,20.10
2019-05-19T02:31:04.039Z,20.06
2019-05-19T02:59:02.297Z,20.02
2019-05-19T03:00:02.560Z,20.02
2019-05-19T03:01:54.330Z,20.07
2019-05-19T03:02:54.299Z,19.99
2019-05-19T03:04:46.454Z,20.02
2019-05-19T03:05:46.407Z,19.95
2019-05-19T03:07:38.493Z,19.95
2019-05-19T03:08:38.441Z,19.95
2019-05-19T03:10:30.409Z,19.99
2019-05-19T03:11:30.375Z,19.95
2019-05-19T03:13:22.460Z,19.96
2019-05-19T03:14:22.408Z,19.99
2019-05-19T03:16:14.478Z,19.92
2019-05-19T03:17:14.444Z,19.99
2019-05-19T03:19:06.626Z,20.02
2019-05-19T03:20:06.883Z,20.00
2019-05-19T03:21:58.647Z,20.02
2019-05-19T03:22:58.855Z,19.96
2019-05-19T03:24:50.700Z,20.00
2019-05-19T03:25:50.885Z,19.95
2019-05-19T03:27:42.737Z,19.96
2019-05-19T03:28:42.684Z,19.96
2019-05-19T03:30:34.878Z,20.00
2019-05-19T03:31:34.819Z,20.03
2019-05-19T03:33:26.897Z,19.99
2019-05-19T03:34:26.858Z,20.04
2019-05-19T03:36:18.943Z,19.99
2019-05-19T03:37:18.887Z,19.96
2019-05-19T03:39:10.864Z,19.99
2019-05-19T03:40:10.828Z,19.99
2019-05-19T03:42:03.019Z,19.85
2019-05-19T03:43:02.962Z,19.99
2019-05-19T03:44:55.040Z,19.99
2019-05-19T03:45:54.992Z,19.96
2019-05-19T03:47:47.078Z,19.95
2019-05-19T03:48:47.277Z,19.99
2019-05-19T03:50:39.093Z,19.96
2019-05-19T03:51:39.085Z,19.95
2019-05-19T03:53:31.248Z,20.03
2019-05-19T03:54:31.196Z,19.96
2019-05-19T03:56:23.266Z,20.00
2019-05-19T03:57:23.242Z,19.99
2019-05-19T03:59:15.312Z,19.94
2019-05-19T04:00:15.274Z,20.00
2019-05-19T04:02:07.437Z,20.00
2019-05-19T04:03:07.400Z,20.00
2019-05-19T04:04:59.489Z,19.99
2019-05-19T04:05:59.443Z,20.02
2019-05-19T04:07:51.518Z,20.07
2019-05-19T04:08:51.469Z,19.96
2019-05-19T04:10:43.572Z,20.03
2019-05-19T04:11:43.517Z,20.00
2019-05-19T04:13:35.574Z,20.07
2019-05-19T04:14:35.539Z,20.00
2019-05-19T04:16:27.618Z,20.06
2019-05-19T04:17:27.564Z,20.02
2019-05-19T04:19:19.681Z,20.06
2019-05-19T04:20:19.607Z,20.04
2019-05-19T04:22:11.673Z,20.03
2019-05-19T04:23:11.668Z,19.99
2019-05-19T04:25:03.832Z,20.06
2019-05-19T04:26:03.776Z,20.04
2019-05-19T04:27:55.879Z,20.04
2019-05-19T04:28:55.812Z,20.02
2019-05-19T04:30:48.014Z,20.09
2019-05-19T04:31:47.954Z,20.07
2019-05-19T04:33:40.168Z,20.09
2019-05-19T04:34:40.321Z,20.14
2019-05-19T04:36:32.159Z,20.16
2019-05-19T04:37:32.358Z,20.26
2019-05-19T04:39:24.202Z,20.21
2019-05-19T04:40:24.152Z,20.25
2019-05-19T04:42:16.226Z,20.21
2019-05-19T04:43:16.423Z,20.24
2019-05-19T04:45:08.274Z,20.32
2019-05-19T04:46:08.462Z,20.29
2019-05-19T04:48:00.314Z,20.29
2019-05-19T04:49:00.258Z,20.37
2019-05-19T04:50:52.456Z,20.31
2019-05-19T04:52:05.919Z,20.39
2019-05-19T04:53:44.582Z,20.41
2019-05-19T04:54:44.557Z,20.36
2019-05-19T04:56:36.704Z,20.41
2019-05-19T04:57:36.898Z,20.41
2019-05-19T04:59:28.764Z,20.47
2019-05-19T05:00:28.710Z,20.56
2019-05-19T05:02:20.886Z,20.58
2019-05-19T05:03:21.070Z,20.60
2019-05-19T05:05:12.930Z,20.52
2019-05-19T05:06:13.169Z,20.52
2019-05-19T05:08:04.950Z,20.55
2019-05-19T05:09:04.945Z,20.55
2019-05-19T05:10:56.897Z,20.58
2019-05-19T05:11:57.071Z,20.59
2019-05-19T05:13:48.908Z,20.60
2019-05-19T05:14:48.873Z,20.55
2019-05-19T05:16:40.967Z,20.59
2019-05-19T05:17:40.910Z,20.58
2019-05-19T05:19:33.008Z,20.60
2019-05-19T05:20:32.966Z,20.60
2019-05-19T05:22:25.015Z,20.66
2019-05-19T05:23:24.978Z,20.59
2019-05-19T05:25:16.960Z,20.66
2019-05-19T05:26:16.908Z,20.62
2019-05-19T05:28:08.996Z,20.66
2019-05-19T05:29:08.944Z,20.67
2019-05-19T05:31:01.014Z,20.69
2019-05-19T05:32:00.976Z,20.55
2019-05-19T05:33:53.060Z,20.63
2019-05-19T05:34:53.011Z,20.58
2019-05-19T05:36:45.203Z,20.62
2019-05-19T05:37:45.148Z,20.69
2019-05-19T05:39:37.327Z,20.59
2019-05-19T05:40:37.286Z,20.60
2019-05-19T05:42:31.762Z,20.60
2019-05-19T05:43:29.319Z,20.62
2019-05-19T05:45:21.390Z,20.60
2019-05-19T05:46:21.363Z,20.72
2019-05-19T05:48:13.440Z,20.69
2019-05-19T05:49:13.420Z,20.72
2019-05-19T05:51:05.579Z,20.81
2019-05-19T05:52:05.556Z,20.72
2019-05-19T05:53:57.715Z,20.69
2019-05-19T05:54:57.662Z,20.84
2019-05-19T05:56:49.749Z,20.80
2019-05-19T05:57:49.695Z,20.77
2019-05-19T05:59:41.768Z,20.70
2019-05-19T06:00:41.963Z,20.80
2019-05-19T06:02:33.818Z,20.80
2019-05-19T06:03:33.765Z,20.85
2019-05-19T06:05:25.861Z,20.80
2019-05-19T06:06:25.798Z,20.80
2019-05-19T06:08:17.785Z,20.82
2019-05-19T06:09:17.731Z,20.82
2019-05-19T06:11:09.909Z,20.78
2019-05-19T06:12:09.867Z,20.87
2019-05-19T06:14:02.091Z,20.88
2019-05-19T06:15:02.244Z,20.92
2019-05-19T06:16:54.074Z,20.99
2019-05-19T06:17:54.281Z,20.97
2019-05-19T06:19:46.134Z,21.00
2019-05-19T06:20:46.304Z,21.03
2019-05-19T06:22:54.480Z,21.03
2019-05-19T06:23:38.108Z,21.06
2019-05-19T06:25:30.195Z,21.09
2019-05-19T06:26:30.140Z,21.14
2019-05-19T06:28:22.248Z,21.18
2019-05-19T06:29:22.176Z,21.24
2019-05-19T06:31:14.247Z,21.29
2019-05-19T06:32:14.214Z,21.35
2019-05-19T06:34:06.297Z,21.45
2019-05-19T06:35:06.244Z,21.51
2019-05-19T06:36:58.336Z,21.51
2019-05-19T06:37:58.511Z,21.50
2019-05-19T06:39:50.351Z,21.52
2019-05-19T06:40:50.579Z,21.58
2019-05-19T06:42:42.416Z,21.64
2019-05-19T06:43:42.351Z,21.61
2019-05-19T06:45:34.494Z,21.72
2019-05-19T06:46:34.384Z,21.62
2019-05-19T06:48:26.471Z,21.69
2019-05-19T06:49:26.419Z,21.70
2019-05-19T06:51:18.490Z,21.77
2019-05-19T06:52:18.452Z,21.77
2019-05-19T06:54:10.647Z,21.92
2019-05-19T06:55:10.587Z,22.00
2019-05-19T06:57:02.656Z,21.96
2019-05-19T06:58:02.863Z,21.99
2019-05-19T06:59:54.710Z,22.10
2019-05-19T07:00:54.685Z,22.08
2019-05-19T07:02:46.830Z,22.17
2019-05-19T07:03:46.793Z,22.25
2019-05-19T07:05:38.873Z,22.30
2019-05-19T07:06:38.864Z,22.32
2019-05-19T07:08:30.925Z,22.39
2019-05-19T07:09:30.880Z,22.32
2019-05-19T07:11:22.936Z,22.39
2019-05-19T07:12:22.897Z,22.47
2019-05-19T07:14:14.984Z,22.41
2019-05-19T07:15:14.960Z,22.50
2019-05-19T07:17:07.108Z,22.51
2019-05-19T07:18:07.299Z,22.53
2019-05-19T07:19:59.256Z,22.59
2019-05-19T07:20:59.205Z,22.62
2019-05-19T07:22:51.394Z,22.65
2019-05-19T07:23:51.579Z,22.63
2019-05-19T07:25:43.410Z,22.60
2019-05-19T07:26:43.623Z,22.70
2019-05-19T07:28:35.461Z,22.63
2019-05-19T07:29:35.410Z,22.72
2019-05-19T07:31:27.485Z,22.70
2019-05-19T07:32:27.445Z,22.69
2019-05-19T07:34:19.532Z,22.68
2019-05-19T07:35:19.479Z,22.63
2019-05-19T07:37:11.546Z,22.76
2019-05-19T07:38:11.541Z,22.76
2019-05-19T07:40:03.701Z,22.78
2019-05-19T07:41:03.883Z,22.75
2019-05-19T07:42:55.736Z,22.81
2019-05-19T07:43:55.683Z,22.90
2019-05-19T07:45:47.772Z,22.85
2019-05-19T07:46:47.719Z,22.84
2019-05-19T07:48:39.715Z,22.84
2019-05-19T07:49:39.652Z,22.93
2019-05-19T07:51:31.736Z,22.84
2019-05-19T07:52:31.695Z,22.99
2019-05-19T07:54:23.754Z,23.02
2019-05-19T07:55:23.718Z,23.02
2019-05-19T07:57:15.807Z,22.94
2019-05-19T07:58:15.753Z,23.05
2019-05-19T08:00:08.097Z,23.08
2019-05-19T08:01:07.788Z,23.05
2019-05-19T08:02:59.959Z,23.13
2019-05-19T08:03:59.925Z,23.10
2019-05-19T08:05:52.013Z,23.13
2019-05-19T08:06:51.960Z,23.13
2019-05-19T08:08:44.032Z,23.15
2019-05-19T08:09:44.046Z,23.12
2019-05-19T08:11:36.181Z,23.20
2019-05-19T08:12:36.354Z,23.15
2019-05-19T08:14:28.300Z,23.31
2019-05-19T08:15:28.268Z,23.34
2019-05-19T08:17:20.357Z,23.39
2019-05-19T08:18:20.331Z,23.44
2019-05-19T08:20:12.387Z,23.43
2019-05-19T08:21:12.335Z,23.54
2019-05-19T08:23:04.425Z,23.55
2019-05-19T08:24:04.441Z,23.47
2019-05-19T08:25:56.586Z,23.56
2019-05-19T08:26:56.509Z,23.55
2019-05-19T08:28:48.605Z,23.62
2019-05-19T08:29:48.565Z,23.55
2019-05-19T08:31:40.628Z,23.74
2019-05-19T08:32:40.576Z,23.78
2019-05-19T08:34:32.661Z,23.77
2019-05-19T08:35:32.879Z,23.78
2019-05-19T08:37:24.699Z,23.84
2019-05-19T08:38:24.877Z,23.87
2019-05-19T08:40:16.819Z,24.01
2019-05-19T08:41:17.026Z,24.01
2019-05-19T08:43:08.871Z,24.01
2019-05-19T08:44:09.044Z,23.92
2019-05-19T08:46:00.900Z,24.17
2019-05-19T08:47:01.079Z,24.18
2019-05-19T08:48:52.945Z,24.29
2019-05-19T08:49:52.888Z,24.29
2019-05-19T08:51:44.966Z,24.53
2019-05-19T08:52:44.919Z,24.60
2019-05-19T08:54:37.004Z,24.81
2019-05-19T08:55:36.954Z,24.88
2019-05-19T08:57:29.024Z,24.84
2019-05-19T08:58:29.219Z,24.84
2019-05-19T09:00:21.067Z,24.85
2019-05-19T09:01:21.251Z,24.86
2019-05-19T09:03:13.092Z,24.99
2019-05-19T09:04:13.085Z,25.01
2019-05-19T09:06:05.245Z,25.06
2019-05-19T09:07:05.427Z,25.06
2019-05-19T09:08:57.283Z,25.16
2019-05-19T09:09:57.256Z,25.16
2019-05-19T09:11:49.219Z,25.28
2019-05-19T09:12:49.193Z,25.33
2019-05-19T09:14:41.240Z,25.40
2019-05-19T09:15:41.195Z,25.51
2019-05-19T09:17:33.265Z,25.60
2019-05-19T09:18:33.460Z,25.59
2019-05-19T09:20:25.391Z,25.70
2019-05-19T09:21:25.497Z,25.70
2019-05-19T09:23:17.351Z,25.66
2019-05-19T09:24:29.664Z,25.80
2019-05-19T09:26:09.485Z,25.95
2019-05-19T09:27:09.435Z,25.93
2019-05-19T09:29:01.881Z,26.09
2019-05-19T09:30:01.697Z,26.23
2019-05-19T09:31:53.563Z,26.33
2019-05-19T09:32:53.736Z,26.43
2019-05-19T09:34:45.571Z,26.43
2019-05-19T09:35:45.545Z,26.43
2019-05-19T09:37:37.720Z,26.48
2019-05-19T09:38:37.907Z,26.60
2019-05-19T09:40:29.753Z,26.85
2019-05-19T09:41:29.733Z,26.89
2019-05-19T09:43:21.898Z,26.96
2019-05-19T09:44:22.074Z,26.95
2019-05-19T09:46:14.129Z,27.03
2019-05-19T09:47:14.111Z,27.00
2019-05-19T09:49:05.976Z,26.97
2019-05-19T09:50:06.143Z,27.05
2019-05-19T09:51:57.982Z,27.15
2019-05-19T09:52:57.951Z,27.26
2019-05-19T09:54:50.036Z,27.49
2019-05-19T09:55:49.985Z,27.52
2019-05-19T09:57:42.070Z,27.63
2019-05-19T09:58:42.250Z,27.55
2019-05-19T10:00:34.087Z,27.77
2019-05-19T10:01:34.279Z,27.73
2019-05-19T10:03:26.139Z,27.78
2019-05-19T10:04:26.089Z,27.77
2019-05-19T10:06:18.262Z,27.67
2019-05-19T10:07:18.225Z,27.77
2019-05-19T10:09:10.414Z,27.71
2019-05-19T10:10:10.589Z,27.78
2019-05-19T10:12:02.540Z,27.70
2019-05-19T10:13:02.767Z,27.71
2019-05-19T10:14:54.575Z,27.74
2019-05-19T10:15:54.766Z,27.75
2019-05-19T10:17:46.614Z,27.68
2019-05-19T10:18:46.568Z,27.65
2019-05-19T10:20:38.652Z,27.64
2019-05-19T10:21:38.602Z,27.64
2019-05-19T10:23:30.686Z,27.51
2019-05-19T10:24:30.637Z,27.51
2019-05-19T10:26:22.822Z,27.63
2019-05-19T10:27:22.772Z,27.49
2019-05-19T10:29:14.846Z,27.47
2019-05-19T10:30:14.811Z,27.55
2019-05-19T10:32:06.896Z,27.48
2019-05-19T10:33:06.845Z,27.49
2019-05-19T10:34:58.933Z,27.54
2019-05-19T10:35:58.880Z,27.54
2019-05-19T10:37:50.953Z,27.60
2019-05-19T10:38:51.157Z,27.60
2019-05-19T10:40:43.037Z,27.86
2019-05-19T10:41:43.174Z,27.87
2019-05-19T10:43:35.116Z,27.85
2019-05-19T10:44:35.082Z,27.89
2019-05-19T10:46:27.170Z,27.93
2019-05-19T10:47:27.117Z,27.96
2019-05-19T10:49:19.284Z,27.93
2019-05-19T10:50:19.252Z,27.89
2019-05-19T10:52:11.331Z,27.95
2019-05-19T10:53:11.288Z,28.04
2019-05-19T10:55:03.354Z,28.20
2019-05-19T10:56:03.322Z,28.25
2019-05-19T10:57:55.402Z,28.35
2019-05-19T10:58:55.583Z,28.39
2019-05-19T11:00:47.527Z,28.41
2019-05-19T11:01:47.723Z,28.45
2019-05-19T11:03:39.580Z,28.44
2019-05-19T11:04:39.529Z,28.49
2019-05-19T11:06:31.697Z,28.52
2019-05-19T11:07:31.668Z,28.59
2019-05-19T11:09:23.855Z,28.60
2019-05-19T11:10:23.814Z,28.48
2019-05-19T11:12:15.873Z,28.63
2019-05-19T11:13:15.836Z,28.66
2019-05-19T11:15:07.922Z,28.59
2019-05-19T11:16:07.873Z,28.63
2019-05-19T11:18:00.061Z,28.59
2019-05-19T11:19:00.234Z,28.63
2019-05-19T11:20:52.208Z,28.63
2019-05-19T11:21:52.371Z,28.60
2019-05-19T11:23:44.214Z,28.62
2019-05-19T11:24:44.179Z,28.54
2019-05-19T11:26:36.274Z,28.42
2019-05-19T11:27:36.214Z,28.37
2019-05-19T11:29:28.280Z,28.38
2019-05-19T11:30:28.250Z,28.25
2019-05-19T11:32:20.334Z,28.04
2019-05-19T11:33:20.282Z,27.86
2019-05-19T11:35:12.368Z,27.70
2019-05-19T11:36:12.317Z,27.67
2019-05-19T11:38:04.489Z,27.47
2019-05-19T11:39:04.453Z,27.39
2019-05-19T11:40:56.538Z,27.37
2019-05-19T11:41:56.488Z,27.36
2019-05-19T11:43:48.556Z,27.33
2019-05-19T11:44:48.520Z,27.37
2019-05-19T11:46:40.602Z,27.18
2019-05-19T11:47:40.558Z,27.12
2019-05-19T11:49:32.630Z,26.90
2019-05-19T11:50:32.601Z,26.83
2019-05-19T11:52:24.781Z,26.68
2019-05-19T11:53:24.728Z,26.66
2019-05-19T11:55:16.794Z,26.45
2019-05-19T11:56:16.761Z,26.51
2019-05-19T11:58:08.847Z,26.29
2019-05-19T11:59:08.799Z,26.26
2019-05-19T12:01:00.865Z,26.09
2019-05-19T12:02:00.832Z,26.16
2019-05-19T12:03:55.450Z,25.90
2019-05-19T12:04:52.870Z,25.91
2019-05-19T12:06:45.039Z,25.85
2019-05-19T12:07:45.008Z,25.73
2019-05-19T12:09:37.191Z,25.77
2019-05-19T12:10:37.141Z,25.68
2019-05-19T12:12:29.328Z,25.51
2019-05-19T12:13:29.405Z,25.43
2019-05-19T12:15:21.257Z,25.44
2019-05-19T12:16:21.229Z,25.44
2019-05-19T12:18:13.375Z,25.35
2019-05-19T12:19:13.570Z,25.25
2019-05-19T12:21:05.429Z,25.18
2019-05-19T12:22:05.611Z,25.18
2019-05-19T12:23:57.473Z,25.10
2019-05-19T12:24:57.638Z,25.08
2019-05-19T12:26:49.489Z,24.98
2019-05-19T12:27:49.673Z,24.98
2019-05-19T12:29:41.513Z,24.96
2019-05-19T12:30:41.485Z,24.93
2019-05-19T12:32:33.675Z,24.76
2019-05-19T12:33:33.626Z,24.73
2019-05-19T12:35:25.794Z,24.76
2019-05-19T12:36:25.753Z,24.58
2019-05-19T12:38:17.842Z,24.60
2019-05-19T12:39:18.017Z,24.53
2019-05-19T12:41:09.855Z,24.51
2019-05-19T12:42:10.049Z,24.51
2019-05-19T12:44:01.908Z,24.39
2019-05-19T12:45:01.860Z,24.42
2019-05-19T12:46:53.945Z,24.29
2019-05-19T12:47:53.962Z,24.26
2019-05-19T12:49:45.989Z,24.20
2019-05-19T12:50:45.924Z,24.20
2019-05-19T12:52:38.099Z,24.16
2019-05-19T12:53:38.093Z,24.17
2019-05-19T12:55:30.045Z,24.05
2019-05-19T12:56:39.189Z,24.05
2019-05-19T12:58:22.082Z,24.08
2019-05-19T12:59:22.261Z,24.02
2019-05-19T13:01:14.120Z,23.98
2019-05-19T13:02:14.292Z,23.81
2019-05-19T13:04:06.131Z,23.76
2019-05-19T13:05:06.424Z,23.74
2019-05-19T13:06:58.187Z,23.65
2019-05-19T13:07:58.136Z,23.59
2019-05-19T13:09:50.220Z,23.54
2019-05-19T13:10:50.395Z,23.55
2019-05-19T13:12:42.241Z,23.50
2019-05-19T13:13:42.210Z,23.47
2019-05-19T13:15:34.282Z,23.40
2019-05-19T13:16:34.235Z,23.36
2019-05-19T13:18:26.327Z,23.21
2019-05-19T13:19:26.272Z,23.15
2019-05-19T13:21:18.286Z,23.10
2019-05-19T13:22:18.224Z,23.03
2019-05-19T13:24:10.272Z,23.03
2019-05-19T13:25:10.238Z,23.00
2019-05-19T13:27:02.433Z,22.94
2019-05-19T13:28:02.384Z,22.90
2019-05-19T13:29:54.442Z,22.91
2019-05-19T13:30:54.408Z,22.84
2019-05-19T13:32:46.495Z,22.73
2019-05-19T13:33:46.443Z,22.70
2019-05-19T13:35:38.540Z,22.68
2019-05-19T13:36:40.352Z,22.62
2019-05-19T13:38:30.564Z,22.66
2019-05-19T13:39:30.512Z,22.57
2019-05-19T13:41:22.577Z,22.57
2019-05-19T13:42:22.569Z,22.60
2019-05-19T13:44:14.733Z,22.48
2019-05-19T13:45:14.688Z,22.47
2019-05-19T13:47:06.873Z,22.47
2019-05-19T13:48:06.823Z,22.50
2019-05-19T13:49:58.887Z,22.54
2019-05-19T13:50:58.853Z,22.41
2019-05-19T13:52:51.387Z,22.44
2019-05-19T13:53:50.996Z,22.39
2019-05-19T13:55:43.071Z,22.43
2019-05-19T13:56:43.030Z,22.38
2019-05-19T13:58:35.092Z,22.36
2019-05-19T13:59:35.058Z,22.38
2019-05-19T14:01:28.939Z,22.36
2019-05-19T14:02:27.093Z,22.38
2019-05-19T14:04:19.287Z,22.33
2019-05-19T14:05:19.459Z,22.30
2019-05-19T14:07:11.299Z,22.35
2019-05-19T14:08:11.495Z,22.38
2019-05-19T14:10:03.352Z,22.43
2019-05-19T14:11:03.312Z,22.38
2019-05-19T14:12:55.383Z,22.32
2019-05-19T14:13:55.333Z,22.39
2019-05-19T14:15:47.525Z,22.38
2019-05-19T14:16:47.470Z,22.35
2019-05-19T14:18:39.579Z,22.33
2019-05-19T14:19:39.505Z,22.35
2019-05-19T14:21:31.625Z,22.39
2019-05-19T14:22:31.538Z,22.32
2019-05-19T14:24:23.605Z,22.36
2019-05-19T14:25:23.804Z,22.38
2019-05-19T14:27:28.728Z,22.33
2019-05-19T14:28:15.607Z,22.35
2019-05-19T14:30:07.686Z,22.33
2019-05-19T14:31:07.646Z,22.45
2019-05-19T14:32:59.728Z,22.41
2019-05-19T14:33:59.679Z,22.51
2019-05-19T14:35:51.747Z,22.47
2019-05-19T14:36:51.712Z,22.41
2019-05-19T14:38:43.917Z,22.48
2019-05-19T14:39:43.853Z,22.35
2019-05-19T14:41:35.916Z,22.43
2019-05-19T14:42:35.881Z,22.47
2019-05-19T14:44:27.973Z,22.41
2019-05-19T14:45:27.932Z,22.33
2019-05-19T14:47:19.984Z,22.39
2019-05-19T14:48:19.951Z,22.36
2019-05-19T14:50:12.039Z,22.30
2019-05-19T14:51:11.984Z,22.38
2019-05-19T14:53:04.085Z,22.39
2019-05-19T14:54:04.023Z,22.38
2019-05-19T14:55:56.095Z,22.32
2019-05-19T14:56:56.053Z,22.38
2019-05-19T14:58:48.243Z,22.33
2019-05-19T14:59:48.190Z,22.39
2019-05-19T15:01:40.261Z,22.39
2019-05-19T15:02:40.231Z,22.32
2019-05-19T15:04:32.308Z,22.39
2019-05-19T15:05:32.259Z,22.43
2019-05-19T15:07:24.436Z,22.35
2019-05-19T15:08:24.411Z,22.28
2019-05-19T15:10:16.492Z,22.32
2019-05-19T15:11:16.424Z,22.36
2019-05-19T15:13:08.601Z,22.38
2019-05-19T15:14:08.796Z,22.39
2019-05-19T15:16:00.683Z,22.38
2019-05-19T15:17:00.831Z,22.43
2019-05-19T15:18:52.772Z,22.43
2019-05-19T15:19:52.743Z,22.38
2019-05-19T15:21:44.823Z,22.41
2019-05-19T15:22:44.773Z,22.38
2019-05-19T15:24:36.870Z,22.32
2019-05-19T15:25:37.039Z,22.35
2019-05-19T15:27:28.907Z,22.36
2019-05-19T15:28:29.070Z,22.33
2019-05-19T15:30:21.011Z,22.33
2019-05-19T15:31:20.979Z,22.36
2019-05-19T15:33:13.065Z,22.38
2019-05-19T15:34:13.014Z,22.36
2019-05-19T15:36:05.100Z,22.35
2019-05-19T15:37:05.047Z,22.44
2019-05-19T15:38:57.120Z,22.50
2019-05-19T15:39:57.310Z,22.39
2019-05-19T15:41:49.165Z,22.43
2019-05-19T15:42:49.345Z,22.43
2019-05-19T15:44:41.185Z,22.47
2019-05-19T15:45:41.150Z,22.48
2019-05-19T15:47:33.304Z,22.43
2019-05-19T15:48:33.187Z,22.47
2019-05-19T15:50:25.321Z,22.54
2019-05-19T15:51:29.116Z,22.53
2019-05-19T15:53:17.468Z,22.62
2019-05-19T15:54:17.358Z,22.59
2019-05-19T15:56:09.427Z,22.60
2019-05-19T15:57:09.406Z,22.57
2019-05-19T15:59:11.616Z,22.55
2019-05-19T16:00:11.571Z,22.55
2019-05-19T16:02:03.653Z,22.60
2019-05-19T16:03:03.709Z,22.57
2019-05-19T16:04:55.692Z,22.55
2019-05-19T16:05:55.880Z,22.62
2019-05-19T16:07:47.699Z,22.57
2019-05-19T16:08:47.894Z,22.53
2019-05-19T16:10:39.765Z,22.57
2019-05-19T16:11:40.261Z,22.59
2019-05-19T16:13:31.770Z,22.59
2019-05-19T16:14:31.736Z,22.55
2019-05-19T16:16:24.225Z,22.54
2019-05-19T16:17:24.175Z,22.57
2019-05-19T16:19:16.264Z,22.57
2019-05-19T16:20:16.445Z,22.57
2019-05-19T16:22:08.299Z,22.69
2019-05-19T16:23:08.474Z,22.72
2019-05-19T16:25:00.314Z,22.69
2019-05-19T16:26:00.306Z,22.62
2019-05-19T16:27:52.469Z,22.62
2019-05-19T16:28:52.417Z,22.69
2019-05-19T16:30:44.484Z,22.68
2019-05-19T16:31:44.451Z,22.65
2019-05-19T16:33:36.542Z,22.68
2019-05-19T16:34:36.487Z,22.59
2019-05-19T16:36:28.570Z,22.55
2019-05-19T16:37:28.589Z,22.70
2019-05-19T16:39:20.621Z,22.60
2019-05-19T16:40:20.556Z,22.63
2019-05-19T16:42:12.645Z,22.57
2019-05-19T16:43:12.693Z,22.60
2019-05-19T16:45:04.675Z,22.59
2019-05-19T16:46:04.655Z,22.59
2019-05-19T16:47:56.814Z,22.57
2019-05-19T16:48:56.760Z,22.55
2019-05-19T16:50:48.863Z,22.59
2019-05-19T16:51:48.795Z,22.59
2019-05-19T16:53:40.880Z,22.50
2019-05-19T16:54:42.711Z,22.45
2019-05-19T16:56:32.898Z,22.60
2019-05-19T16:57:32.866Z,22.44
2019-05-19T16:59:24.958Z,22.43
2019-05-19T17:00:25.533Z,22.47
2019-05-19T17:02:16.979Z,22.48
2019-05-19T17:03:17.161Z,22.45
2019-05-19T17:05:09.019Z,22.51
2019-05-19T17:06:09.195Z,22.44
2019-05-19T17:08:01.034Z,22.41
2019-05-19T17:09:01.002Z,22.47
2019-05-19T17:10:53.093Z,22.43
2019-05-19T17:11:53.035Z,22.32
2019-05-19T17:13:45.123Z,22.45
2019-05-19T17:14:45.298Z,22.38
2019-05-19T17:16:37.156Z,22.35
2019-05-19T17:17:37.364Z,22.38
2019-05-19T17:19:29.175Z,22.45
2019-05-19T17:20:30.973Z,22.32
2019-05-19T17:22:21.127Z,22.36
2019-05-19T17:23:21.072Z,22.33
2019-05-19T17:25:13.156Z,22.32
2019-05-19T17:26:13.105Z,22.39
2019-05-19T17:28:05.275Z,22.26
2019-05-19T17:29:05.471Z,22.35
2019-05-19T17:30:57.329Z,22.32
2019-05-19T17:32:05.632Z,22.25
2019-05-19T17:33:49.354Z,22.33
2019-05-19T17:34:49.311Z,22.36
2019-05-19T17:36:41.405Z,22.36
2019-05-19T17:37:41.346Z,22.30
2019-05-19T17:39:33.438Z,22.23
2019-05-19T17:40:33.380Z,22.36
2019-05-19T17:42:25.469Z,22.29
2019-05-19T17:43:25.415Z,22.32
2019-05-19T17:45:17.482Z,22.29
2019-05-19T17:46:17.451Z,22.26
2019-05-19T17:48:18.749Z,22.20
2019-05-19T17:49:09.481Z,22.18
2019-05-19T17:51:01.557Z,22.18
2019-05-19T17:52:01.516Z,22.13
2019-05-19T17:53:53.602Z,22.11
2019-05-19T17:54:53.550Z,22.07
2019-05-19T17:56:45.618Z,22.06
2019-05-19T17:57:45.587Z,22.14
2019-05-19T17:59:37.672Z,22.02
2019-05-19T18:00:37.628Z,22.07
2019-05-19T18:02:29.794Z,22.14
2019-05-19T18:03:30.039Z,22.02
2019-05-19T18:05:21.927Z,22.06
2019-05-19T18:06:22.020Z,22.08
2019-05-19T18:08:13.875Z,21.98
2019-05-19T18:09:14.066Z,21.96
2019-05-19T18:11:05.910Z,21.99
2019-05-19T18:12:06.089Z,21.93
2019-05-19T18:13:57.954Z,21.96
2019-05-19T18:14:57.896Z,22.00
2019-05-19T18:16:49.999Z,21.98
2019-05-19T18:17:49.932Z,21.82
2019-05-19T18:19:41.999Z,21.80
2019-05-19T18:20:42.194Z,21.83
2019-05-19T18:22:34.057Z,21.82
2019-05-19T18:23:34.277Z,21.89
2019-05-19T18:25:26.095Z,21.76
2019-05-19T18:26:26.269Z,21.82
2019-05-19T18:28:18.125Z,21.82
2019-05-19T18:29:30.515Z,21.80
2019-05-19T18:31:10.243Z,21.77
2019-05-19T18:32:10.205Z,21.76
2019-05-19T18:34:02.293Z,21.70
2019-05-19T18:35:02.239Z,21.79
2019-05-19T18:36:54.322Z,21.70
2019-05-19T18:37:54.271Z,21.66
2019-05-19T18:39:46.338Z,21.70
2019-05-19T18:40:46.306Z,21.70
2019-05-19T18:42:38.392Z,21.66
2019-05-19T18:43:38.341Z,21.61
2019-05-19T18:45:30.450Z,21.60
2019-05-19T18:46:30.390Z,21.58
2019-05-19T18:48:23.362Z,21.57
2019-05-19T18:49:22.409Z,21.51
2019-05-19T18:51:14.482Z,21.51
2019-05-19T18:52:14.443Z,21.55
2019-05-19T18:54:06.531Z,21.50